createdAt,value
2023-07-09T00:03:31.132Z,19.62
2023-07-09T00:06:15.169Z,19.53
2023-07-09T00:09:26.438Z,19.44
2023-07-09T00:12:07.770Z,19.34
2023-07-09T00:15:15.744Z,19.28
2023-07-09T00:18:20.971Z,19.14
2023-07-09T00:21:08.711Z,19.04
2023-07-09T00:24:07.838Z,19.00
2023-07-09T00:26:59.513Z,18.93
2023-07-09T00:30:10.057Z,18.88
2023-07-09T00:33:16.083Z,18.82
2023-07-09T00:36:31.404Z,18.75
2023-07-09T00:43:21.359Z,18.64
2023-07-09T00:46:30.871Z,18.56
2023-07-09T00:49:33.177Z,18.50
2023-07-09T00:53:13.127Z,18.46
2023-07-09T00:59:24.768Z,18.39
2023-07-09T01:06:01.412Z,18.30
2023-07-09T01:08:53.142Z,18.25
2023-07-09T01:10:01.405Z,18.37
2023-07-09T01:12:09.012Z,18.22
2023-07-09T01:15:31.359Z,18.12
2023-07-09T01:18:41.896Z,18.02
2023-07-09T01:21:44.753Z,18.06
2023-07-09T01:25:15.005Z,18.02
2023-07-09T01:28:52.224Z,17.90
2023-07-09T01:32:37.822Z,17.82
2023-07-09T01:38:36.670Z,17.70
2023-07-09T01:41:46.388Z,17.68
2023-07-09T01:48:43.301Z,17.64
2023-07-09T01:51:33.012Z,17.64
2023-07-09T01:55:00.278Z,17.60
2023-07-09T01:57:48.299Z,17.58
2023-07-09T02:01:23.574Z,17.57
2023-07-09T02:04:14.042Z,17.52
2023-07-09T02:07:07.322Z,17.50
2023-07-09T02:10:09.505Z,17.50
2023-07-09T02:13:03.624Z,17.52
2023-07-09T02:16:29.130Z,17.55
2023-07-09T02:19:19.990Z,17.52
2023-07-09T02:22:23.139Z,17.48
2023-07-09T02:26:04.794Z,17.41
2023-07-09T02:29:28.479Z,17.34
2023-07-09T02:32:49.678Z,17.29
2023-07-09T02:36:24.831Z,17.24
2023-07-09T02:46:03.611Z,17.12
2023-07-09T02:49:15.450Z,17.09
2023-07-09T02:52:29.257Z,17.07
2023-07-09T02:55:30.103Z,17.11
2023-07-09T02:58:17.316Z,17.14
2023-07-09T03:01:07.481Z,17.18
2023-07-09T03:04:05.733Z,17.18
2023-07-09T03:09:47.180Z,17.14
2023-07-09T03:12:45.825Z,17.12
2023-07-09T03:15:42.238Z,17.11
2023-07-09T03:18:29.606Z,17.08
2023-07-09T03:21:43.160Z,17.06
2023-07-09T03:24:34.721Z,17.03
2023-07-09T03:27:20.204Z,17.08
2023-07-09T03:29:57.077Z,17.13
2023-07-09T03:32:46.557Z,17.18
2023-07-09T03:35:47.160Z,17.20
2023-07-09T03:38:34.442Z,17.20
2023-07-09T03:42:00.516Z,17.20
2023-07-09T03:44:55.265Z,17.18
2023-07-09T03:47:34.825Z,17.26
2023-07-09T03:50:54.371Z,17.32
2023-07-09T03:54:10.766Z,17.41
2023-07-09T03:56:53.699Z,17.52
2023-07-09T03:59:41.788Z,17.68
2023-07-09T04:02:13.733Z,17.76
2023-07-09T04:05:10.405Z,17.87
2023-07-09T04:08:11.532Z,17.99
2023-07-09T04:12:26.105Z,18.08
2023-07-09T04:15:34.003Z,18.18
2023-07-09T04:22:17.177Z,18.43
2023-07-09T04:26:02.654Z,18.51
2023-07-09T04:29:26.067Z,18.74
2023-07-09T04:32:32.838Z,18.94
2023-07-09T04:35:23.265Z,19.11
2023-07-09T04:38:45.800Z,19.32
2023-07-09T04:44:52.338Z,19.66
2023-07-09T04:47:29.593Z,19.83
2023-07-09T04:50:27.455Z,20.02
2023-07-09T04:53:05.457Z,20.26
2023-07-09T04:55:49.420Z,20.53
2023-07-09T04:58:30.784Z,20.83
2023-07-09T05:04:48.743Z,21.52
2023-07-09T05:08:49.575Z,22.05
2023-07-09T05:12:25.962Z,22.53
2023-07-09T05:15:36.716Z,22.97
2023-07-09T05:18:29.438Z,23.30
2023-07-09T05:21:10.213Z,23.58
2023-07-09T05:24:14.772Z,23.92
2023-07-09T05:30:55.059Z,24.51
2023-07-09T05:33:30.104Z,24.61
2023-07-09T05:36:06.165Z,24.72
2023-07-09T05:38:57.511Z,24.99
2023-07-09T05:41:58.167Z,25.22
2023-07-09T05:45:39.919Z,25.24
2023-07-09T05:48:45.755Z,25.32
2023-07-09T05:51:42.619Z,25.46
2023-07-09T05:54:52.537Z,25.81
2023-07-09T05:57:50.105Z,26.26
2023-07-09T06:00:44.278Z,26.57
2023-07-09T06:04:17.421Z,26.89
2023-07-09T06:06:52.739Z,27.21
2023-07-09T06:09:29.140Z,27.54
2023-07-09T06:12:14.596Z,27.87
2023-07-09T06:14:54.138Z,28.16
2023-07-09T06:17:34.848Z,28.30
2023-07-09T06:20:43.803Z,28.27
2023-07-09T06:23:29.659Z,28.46
2023-07-09T06:28:52.598Z,28.72
2023-07-09T06:31:53.329Z,28.98
2023-07-09T06:34:26.736Z,29.17
2023-07-09T06:37:13.426Z,29.39
2023-07-09T06:39:48.797Z,29.61
2023-07-09T06:42:35.808Z,29.84
2023-07-09T06:45:19.536Z,30.03
2023-07-09T06:48:05.942Z,30.16
2023-07-09T06:50:39.943Z,30.25
2023-07-09T06:53:31.558Z,30.46
2023-07-09T06:56:02.536Z,30.75
2023-07-09T06:58:41.550Z,30.91
2023-07-09T07:01:24.676Z,31.08
2023-07-09T07:04:02.196Z,31.22
2023-07-09T07:10:11.873Z,31.23
2023-07-09T07:13:02.557Z,31.13
2023-07-09T07:19:29.405Z,31.10
2023-07-09T07:27:53.516Z,31.11
2023-07-09T07:31:03.880Z,31.18
2023-07-09T07:37:06.999Z,31.16
2023-07-09T07:39:47.518Z,31.05
2023-07-09T07:42:49.877Z,31.07
2023-07-09T07:45:30.210Z,30.99
2023-07-09T07:48:20.321Z,30.85
2023-07-09T07:51:25.974Z,30.91
2023-07-09T07:58:04.120Z,31.08
2023-07-09T08:00:48.823Z,31.23
2023-07-09T08:03:51.407Z,31.35
2023-07-09T08:10:51.092Z,31.53
2023-07-09T08:13:47.036Z,31.59
2023-07-09T08:16:37.523Z,31.71
2023-07-09T08:25:08.156Z,32.04
2023-07-09T08:28:23.908Z,32.12
2023-07-09T08:31:24.715Z,32.20
2023-07-09T08:34:17.401Z,32.24
2023-07-09T08:43:01.584Z,32.08
2023-07-09T08:46:21.920Z,32.17
2023-07-09T08:50:22.336Z,32.26
2023-07-09T08:53:20.661Z,32.25
2023-07-09T08:56:20.674Z,32.31
2023-07-09T08:59:15.333Z,32.21
2023-07-09T09:03:03.868Z,32.11
2023-07-09T09:06:32.796Z,32.02
2023-07-09T09:10:12.512Z,31.88
2023-07-09T09:16:38.201Z,31.67
2023-07-09T09:19:45.751Z,31.64
2023-07-09T09:23:30.163Z,31.62
2023-07-09T09:27:06.128Z,31.62
2023-07-09T09:30:05.405Z,31.64
2023-07-09T09:32:49.269Z,31.60
2023-07-09T09:35:22.794Z,31.60
2023-07-09T09:38:13.962Z,31.58
2023-07-09T09:40:44.491Z,31.47
2023-07-09T09:43:45.634Z,31.40
2023-07-09T09:46:36.364Z,31.40
2023-07-09T09:49:33.083Z,31.40
2023-07-09T09:52:19.769Z,31.52
2023-07-09T09:55:41.796Z,31.52
2023-07-09T09:58:29.976Z,31.37
2023-07-09T10:01:31.678Z,31.25
2023-07-09T10:04:08.799Z,31.19
2023-07-09T10:06:53.035Z,31.25
2023-07-09T10:09:56.954Z,31.18
2023-07-09T10:13:17.863Z,31.44
2023-07-09T10:16:38.757Z,31.61
2023-07-09T10:19:49.878Z,31.81
2023-07-09T10:22:58.899Z,32.00
2023-07-09T10:25:59.636Z,32.10
2023-07-09T10:29:56.293Z,32.03
2023-07-09T10:32:59.188Z,31.88
2023-07-09T10:35:37.359Z,31.75
2023-07-09T10:38:29.702Z,31.66
2023-07-09T10:41:20.458Z,31.69
2023-07-09T10:44:25.352Z,31.63
2023-07-09T10:47:43.430Z,31.67
2023-07-09T10:50:50.875Z,31.77
2023-07-09T10:53:53.344Z,31.77
2023-07-09T10:57:02.540Z,31.75
2023-07-09T10:59:39.171Z,31.75
2023-07-09T11:02:37.301Z,31.68
2023-07-09T11:05:14.743Z,31.54
2023-07-09T11:08:25.271Z,31.41
2023-07-09T11:11:05.160Z,31.32
2023-07-09T11:13:54.056Z,31.21
2023-07-09T11:16:51.742Z,31.13
2023-07-09T11:19:26.469Z,30.90
2023-07-09T11:22:21.814Z,30.90
2023-07-09T11:25:14.241Z,30.82
2023-07-09T11:28:09.148Z,30.71
2023-07-09T11:34:43.773Z,30.66
2023-07-09T11:37:50.547Z,30.64
2023-07-09T11:40:28.156Z,30.63
2023-07-09T11:43:02.416Z,30.66
2023-07-09T11:45:42.325Z,30.59
2023-07-09T11:48:38.476Z,30.59
2023-07-09T11:51:35.821Z,30.55
2023-07-09T11:54:16.795Z,30.42
2023-07-09T11:57:07.528Z,30.48
2023-07-09T11:59:44.788Z,30.60
2023-07-09T12:02:25.247Z,30.69
2023-07-09T12:05:09.803Z,30.65
2023-07-09T12:07:47.135Z,30.68
2023-07-09T12:10:42.604Z,30.67
2023-07-09T12:13:22.555Z,30.78
2023-07-09T12:15:53.847Z,30.90
2023-07-09T12:18:53.644Z,30.92
2023-07-09T12:21:50.176Z,30.87
2023-07-09T12:25:10.790Z,30.86
2023-07-09T12:27:52.916Z,30.87
2023-07-09T12:30:43.360Z,30.91
2023-07-09T12:33:56.504Z,30.90
2023-07-09T12:36:49.912Z,30.90
2023-07-09T12:39:41.961Z,30.90
2023-07-09T12:42:52.798Z,30.90
2023-07-09T12:45:46.499Z,30.87
2023-07-09T12:52:23.406Z,30.77
2023-07-09T12:55:34.395Z,30.74
2023-07-09T12:58:38.385Z,30.71
2023-07-09T13:01:51.708Z,30.59
2023-07-09T13:05:00.232Z,30.50
2023-07-09T13:08:01.220Z,30.44
2023-07-09T13:11:08.261Z,30.37
2023-07-09T13:14:08.989Z,30.32
2023-07-09T13:18:35.138Z,30.37
2023-07-09T13:21:02.154Z,30.32
2023-07-09T13:24:20.227Z,30.36
2023-07-09T13:27:14.361Z,30.41
2023-07-09T13:30:35.989Z,30.40
2023-07-09T13:33:41.669Z,30.32
2023-07-09T13:36:29.124Z,30.29
2023-07-09T13:39:21.785Z,30.34
2023-07-09T13:42:21.908Z,30.39
2023-07-09T13:45:07.065Z,30.41
2023-07-09T13:47:59.030Z,30.40
2023-07-09T13:50:58.246Z,30.35
2023-07-09T14:00:46.306Z,30.34
2023-07-09T14:03:30.006Z,30.31
2023-07-09T14:06:48.741Z,30.38
2023-07-09T14:09:51.661Z,30.40
2023-07-09T14:13:14.829Z,30.42
2023-07-09T14:16:31.055Z,30.43
2023-07-09T14:20:11.707Z,30.44
2023-07-09T14:27:03.336Z,30.35
2023-07-09T14:29:59.833Z,30.29
2023-07-09T14:33:21.892Z,30.26
2023-07-09T14:40:17.194Z,30.13
2023-07-09T14:43:16.923Z,30.11
2023-07-09T14:49:47.218Z,30.06
2023-07-09T14:52:25.419Z,29.98
2023-07-09T14:55:03.291Z,30.00
2023-07-09T14:57:41.693Z,30.05
2023-07-09T15:00:41.398Z,30.03
2023-07-09T15:03:39.447Z,29.97
2023-07-09T15:06:52.644Z,29.89
2023-07-09T15:10:18.985Z,29.94
2023-07-09T15:13:20.646Z,29.92
2023-07-09T15:19:43.309Z,29.94
2023-07-09T15:26:06.408Z,30.00
2023-07-09T15:29:22.393Z,30.02
2023-07-09T15:41:28.365Z,30.12
2023-07-09T15:45:02.562Z,30.15
2023-07-09T15:54:36.476Z,29.94
2023-07-09T15:57:33.210Z,29.91
2023-07-09T16:00:49.028Z,29.86
2023-07-09T16:04:10.425Z,29.83
2023-07-09T16:10:23.880Z,29.87
2023-07-09T16:13:15.409Z,29.89
2023-07-09T16:32:40.699Z,29.61
2023-07-09T16:35:26.889Z,29.59
2023-07-09T17:18:34.140Z,29.14
2023-07-09T17:21:49.694Z,29.18
2023-07-09T17:25:33.944Z,29.12
2023-07-09T17:28:29.443Z,29.06
2023-07-09T17:39:16.652Z,28.93
2023-07-09T17:42:06.043Z,28.86
2023-07-09T17:59:16.501Z,28.57
2023-07-09T18:07:48.053Z,28.34
2023-07-09T18:11:04.576Z,28.26
2023-07-09T18:21:43.386Z,27.96
2023-07-09T18:24:39.655Z,27.96
2023-07-09T18:42:32.513Z,27.30
2023-07-09T18:46:23.083Z,27.21
2023-07-09T19:07:25.312Z,26.44
2023-07-09T19:10:02.001Z,26.28
2023-07-09T19:16:45.004Z,26.09
2023-07-09T19:19:20.678Z,26.03
2023-07-09T19:22:18.840Z,25.99
2023-07-09T19:26:03.814Z,25.90
2023-07-09T19:29:11.453Z,25.81
2023-07-09T19:33:03.889Z,25.73
2023-07-09T19:43:37.215Z,25.44
2023-07-09T19:47:03.749Z,25.36
2023-07-09T19:54:09.305Z,25.16
2023-07-09T20:34:59.810Z,23.44
2023-07-09T20:52:27.112Z,22.98
2023-07-09T20:55:17.637Z,22.92
2023-07-09T20:58:32.488Z,22.87
2023-07-09T21:01:20.471Z,22.75
2023-07-09T21:07:19.556Z,22.53
2023-07-09T21:10:05.885Z,22.45
2023-07-09T21:13:13.359Z,22.38
2023-07-09T21:16:02.223Z,22.30
2023-07-09T21:18:38.431Z,22.22
2023-07-09T21:21:21.864Z,22.18
2023-07-09T21:23:51.768Z,22.11
2023-07-09T21:26:24.347Z,22.07
2023-07-09T21:28:54.568Z,22.04
2023-07-09T21:31:24.934Z,21.99
2023-07-09T21:33:56.552Z,21.92
2023-07-09T21:36:29.744Z,21.80
2023-07-09T21:39:20.463Z,21.79
2023-07-09T21:42:07.851Z,21.76
2023-07-09T21:44:56.191Z,21.67
2023-07-09T21:47:33.572Z,21.71
2023-07-09T21:50:09.127Z,21.69
2023-07-09T21:52:48.137Z,21.67
2023-07-09T21:55:32.011Z,21.64
2023-07-09T21:58:12.059Z,21.60
2023-07-09T22:03:20.771Z,21.49
2023-07-09T22:05:59.103Z,21.53
2023-07-09T22:08:35.457Z,21.50
2023-07-09T22:11:23.885Z,21.44
2023-07-09T22:13:59.550Z,21.38
2023-07-09T22:16:31.275Z,21.32
2023-07-09T22:19:01.726Z,21.27
2023-07-09T22:21:50.698Z,21.23
2023-07-09T22:24:21.736Z,21.15
2023-07-09T22:27:03.541Z,21.10
2023-07-09T22:29:37.440Z,21.07
2023-07-09T22:32:31.695Z,21.02
2023-07-09T22:35:06.325Z,20.97
2023-07-09T22:37:39.126Z,20.94
2023-07-09T22:40:21.738Z,20.87
2023-07-09T22:42:56.774Z,20.84
2023-07-09T22:45:41.631Z,20.81
2023-07-09T22:48:11.552Z,20.76
2023-07-09T22:50:48.858Z,20.73
2023-07-09T22:53:19.779Z,20.71
2023-07-09T22:55:54.293Z,20.69
2023-07-09T22:58:25.030Z,20.66
2023-07-09T23:01:15.440Z,20.53
2023-07-09T23:03:46.225Z,20.47
2023-07-09T23:06:21.207Z,20.42
2023-07-09T23:08:58.799Z,20.37
2023-07-09T23:11:34.836Z,20.34
2023-07-09T23:14:04.692Z,20.29
2023-07-09T23:16:34.676Z,20.21
2023-07-09T23:19:32.457Z,20.18
2023-07-09T23:22:04.614Z,20.15
2023-07-09T23:24:34.857Z,20.12
2023-07-09T23:27:07.119Z,20.07
2023-07-09T23:29:37.114Z,20.03
2023-07-09T23:32:07.045Z,20.02
2023-07-09T23:34:36.954Z,20.02
2023-07-09T23:37:08.808Z,19.95
2023-07-09T23:39:39.024Z,20.00
2023-07-09T23:42:14.172Z,20.00
2023-07-09T23:44:46.843Z,19.97
2023-07-09T23:47:20.340Z,19.94
2023-07-09T23:49:52.922Z,19.90
2023-07-09T23:52:30.786Z,19.83
2023-07-09T23:55:01.144Z,19.83
2023-07-09T23:57:32.787Z,19.79
